ESOK Airport Information

Runway Information
Runway 03 Length 8255 ft width 148 ft
Elevation 332 ft Threshold 0 ft Heading 26
Runway 21 Length 8255 ft Width 148 ft
Elevation 352 ft Threshold 0 ft Heading 206
Runway 03L Length 1840 ft width 170 ft
Elevation 0 ft Threshold 0 ft Heading 26
Runway 21R Length 1840 ft Width 170 ft
Elevation 0 ft Threshold 0 ft Heading 206
Airport Frequencies
Type TWR Name TWR Frequency 119.45 MHZ
Airport Navaids
Type VOR-DME Name Karlstad Frequency 117800 KHZ
Airport Weather Information & NOTAM
ADDS - METARS form results

(0357 UTC 24 May 2019)
Data provider http://aviationweather.gov/metar/data/
 
METAR text: ESOK 240320Z AUTO 12003KT 9999 BKN021/// 10/09 Q1007
Conditions at: ESOK (KARLSTAD NORTH , SE) observed 0320 UTC 24 May 2019
Temperature: 10.0°C (50°F)
Dewpoint: 9.0°C (48°F) [RH = 93%]
Pressure (altimeter): 29.73 inches Hg (1007.0 mb)
Winds: from the ESE (120 degrees) at 3 MPH (3 knots; 1.5 m/s)
Visibility: 6 or more miles (10+ km)
Ceiling: 2100 feet AGL
Clouds: broken clouds at 2100 feet AGL
Weather: no significant weather observed at this time

Forecast for: ESOK (KARLSTAD NORTH , SE)
Text: TAF ESOK 231730Z 2318/2321 20008KT CAVOK
Forecast period: 1800 to 2100 UTC 23 May 2019
Forecast type: FROM: standard forecast or significant change
Winds: from the SSW (200 degrees) at 9 MPH (8 knots; 4.1 m/s)
Visibility: 6 or more miles 10+ km)
Ceiling: unknown
Clouds: missing
Weather: NSW  (no significant weather)